LiveATC.Net - Listen to live air traffic control over the Internet!


ICAO: CYKF  IATA: YKF   Airport: Waterloo Airport
City: Waterloo   State/Province: Ontario
Country: Canada   Continent: North America
CYKF METAR Weather: CYKF 171600Z AUTO 32015G29KT 9SM OVC017 06/03 A2968 RMK SLP057
CYKF Flight Activity (FlightAware)
CYKF Webcam:  (Airport Webcams) 

CYKF Gnd/Twr
Feed Status: UP   Listeners: 0
Listen in your browser - HTML5 player (in browser, HTML5)
Click here to listen with your own player (launches your MP3 player)
CYKF Gnd/Twr Audio Archives
FacilityFrequency
FBO123.500
Waterloo Ground121.800
Waterloo Tower126.000

NOTICE

Unauthorized use prohibited. See LiveATC.net Terms of Service


Airport/ARTCC Code
Frequency Search
(e.g., 124.400, 128.75)
Site-wide search
 


Browse LiveATC Feeds
Top 50 LiveATC Feeds
LiveATC Feed Map
Bad Weather Areas

LiveATC FAQ
Offer LiveATC feed
Contact LiveATC.net
Press Inquiries

LiveATC on iPhone
LiveATC on Android

Windows Phone
Windows 8/10

LiveATC Mobile
(Mobile browser)

ATC Audio Archives
Interesting Recordings

LiveATC Forums


Home Page
About LiveATC.net
Make a Donation
Terms of Use
Privacy Policy

Canadian Air Freqs

AIRMETs/SIGMETs

FAA Airport Status
Nat'l Airspace Status
Arrival Demand Charts


Server Software By:
Icecast.org
Liquidsoap